Polgar, Hungary
Current Conditions -  °F | °C
As of 8:45 PM on Friday 24 Oct 2014 (Local Time) from LHDC Reporting Station
Broken Clouds Broken Clouds  
Wind Chill: 34°   Ceiling: 1500
Heat Index: 41°   Visibility: 5mi
Dew Point: 39°   Wind: 13mph
Humidity: 93%   Direction: 20°NNE
Pressure: 30.15"   Gusts: NA
Location:  47.87°N, 21.12°E
Report Text: LHDC 241845Z 02011KT 8000 BKN015 05/04 Q1021
Loading
Personal Weather Stations






























Interactive Weather Map
Tropical Storm Tracking
New forecast layout! Learn more

10-Day Weather Forecast

Advertisements
Track Severe Weather on mobile